Terminal Aerodrome Forecast
Issued by NWS

Home | Current Version | Previous Version | Text Only | Print | Product List | Glossary On
Versions: 1 2 3 4 5 6 7 8 9 10 11 12 13 14
000
FTUS46 KOTX 301730
TAFCOE
TAF
KCOE 301730Z 3018/0118 02005KT P6SM VCSH BKN035 BKN070
     FM010000 01006KT P6SM SCT050 SCT150
     FM010600 03010KT P6SM FEW150
     FM011300 04013KT P6SM FEW150
      AMD LTD TO CLD VIS AND WIND=

USA.gov is the U.S. government's official web portal to all federal, state and local government web resources and services.